createdAt,value
2023-02-11T00:02:01.234Z,2.40
2023-02-11T00:05:51.289Z,2.10
2023-02-11T00:09:41.713Z,1.40
2023-02-11T00:13:31.496Z,1.60
2023-02-11T00:17:21.169Z,1.50
2023-02-11T00:21:11.171Z,1.70
2023-02-11T00:25:01.298Z,1.70
2023-02-11T00:28:51.453Z,1.80
2023-02-11T00:32:31.214Z,1.50
2023-02-11T00:36:21.326Z,1.90
2023-02-11T00:40:12.421Z,1.60
2023-02-11T00:44:01.966Z,1.70
2023-02-11T00:47:44.732Z,1.40
2023-02-11T00:51:34.724Z,1.50
2023-02-11T00:55:14.972Z,1.60
2023-02-11T00:59:04.762Z,2.10
2023-02-11T01:02:54.967Z,2.00
2023-02-11T01:06:30.416Z,1.60
2023-02-11T01:10:20.146Z,1.90
2023-02-11T01:14:02.646Z,2.10
2023-02-11T01:17:52.297Z,1.80
2023-02-11T01:21:42.092Z,1.60
2023-02-11T01:25:32.012Z,2.10
2023-02-11T01:29:21.750Z,2.90
2023-02-11T01:33:11.485Z,1.40
2023-02-11T01:37:01.647Z,1.50
2023-02-11T01:40:54.002Z,2.00
2023-02-11T01:45:01.798Z,2.30
2023-02-11T01:48:51.736Z,1.30
2023-02-11T01:52:41.475Z,2.70
2023-02-11T01:56:46.733Z,2.60
2023-02-11T02:00:39.104Z,1.70
2023-02-11T02:04:27.281Z,2.40
2023-02-11T02:08:16.785Z,2.10
2023-02-11T02:12:06.289Z,1.80
2023-02-11T02:16:04.925Z,1.60
2023-02-11T04:56:04.855Z,1.80
2023-02-11T04:59:59.360Z,1.70
2023-02-11T05:03:41.970Z,2.30
2023-02-11T05:07:31.839Z,2.00
2023-02-11T05:11:21.204Z,1.60
2023-02-11T05:15:10.911Z,1.60
2023-02-11T05:18:56.184Z,1.00
2023-02-11T05:22:45.867Z,1.90
2023-02-11T05:26:34.727Z,1.40
2023-02-11T05:30:24.147Z,2.00
2023-02-11T05:34:13.771Z,1.80
2023-02-11T05:38:03.429Z,1.80
2023-02-11T05:41:44.765Z,1.80
2023-02-11T05:45:33.527Z,1.60
2023-02-11T05:49:23.420Z,1.80
2023-02-11T05:53:13.474Z,1.10
2023-02-11T05:56:56.215Z,1.30
2023-02-11T06:00:45.918Z,1.40
2023-02-11T06:04:35.911Z,1.70
2023-02-11T06:08:18.917Z,1.70
2023-02-11T06:12:08.537Z,1.80
2023-02-11T06:16:01.873Z,1.40
2023-02-11T06:24:51.353Z,1.40
2023-02-11T06:29:13.403Z,1.30
2023-02-11T06:32:47.343Z,1.00
2023-02-11T06:40:17.547Z,1.50
2023-02-11T06:47:54.918Z,1.70
2023-02-11T06:55:46.122Z,1.50
2023-02-11T06:58:37.162Z,1.40
2023-02-11T07:01:45.084Z,1.70
2023-02-11T07:04:42.880Z,1.50
2023-02-11T07:07:22.407Z,1.50
2023-02-11T07:10:26.540Z,1.30
2023-02-11T07:13:05.852Z,1.50
2023-02-11T07:16:07.678Z,1.40
2023-02-11T07:19:08.621Z,1.30
2023-02-11T07:21:54.885Z,2.10
2023-02-11T07:24:57.698Z,2.10
2023-02-11T07:28:47.168Z,1.50
2023-02-11T09:08:42.438Z,1.20
2023-02-11T09:45:43.422Z,0.90
2023-02-11T09:49:26.604Z,1.30
2023-02-11T09:53:25.279Z,1.00
2023-02-11T09:57:27.904Z,1.70
2023-02-11T10:04:36.773Z,1.10
2023-02-11T10:08:25.507Z,1.00
2023-02-11T10:12:16.428Z,0.90
2023-02-11T10:15:43.485Z,1.20
2023-02-11T10:19:34.904Z,0.80
2023-02-11T10:23:35.010Z,0.90
2023-02-11T10:27:25.006Z,1.00
2023-02-11T10:30:57.682Z,1.00
2023-02-11T10:35:05.061Z,1.40
2023-02-11T10:38:55.501Z,1.00
2023-02-11T10:42:55.686Z,0.90
2023-02-11T10:46:45.865Z,0.80
2023-02-11T10:50:18.535Z,0.80
2023-02-11T10:54:13.592Z,0.80
2023-02-11T10:57:51.141Z,0.90
2023-02-11T11:01:40.900Z,0.90
2023-02-11T11:05:27.315Z,0.90
2023-02-11T11:09:01.428Z,0.90
2023-02-11T11:13:05.992Z,1.00
2023-02-11T11:16:54.041Z,0.90
2023-02-11T11:20:39.333Z,0.90
2023-02-11T11:24:32.451Z,1.30
2023-02-11T11:28:16.871Z,1.00
2023-02-11T11:32:13.055Z,0.90
2023-02-11T11:35:53.664Z,1.00
2023-02-11T11:39:58.671Z,1.10
2023-02-11T11:43:41.298Z,1.40
2023-02-11T11:47:34.046Z,1.40
2023-02-11T11:51:35.814Z,1.10
2023-02-11T11:55:19.857Z,0.80
2023-02-11T11:59:12.615Z,1.20
2023-02-11T12:03:08.628Z,0.90
2023-02-11T12:07:07.791Z,1.00
2023-02-11T12:11:00.608Z,1.00
2023-02-11T12:14:36.369Z,0.80
2023-02-11T12:18:31.583Z,1.20
2023-02-11T12:22:24.349Z,1.80
2023-02-11T12:26:23.148Z,1.40
2023-02-11T12:30:18.778Z,2.20
2023-02-11T12:34:23.606Z,1.90
2023-02-11T12:38:37.773Z,1.30
2023-02-11T12:42:16.283Z,1.40
2023-02-11T12:46:18.220Z,1.60
2023-02-11T12:50:17.489Z,1.10
2023-02-11T12:54:29.077Z,1.20
2023-02-11T12:58:25.453Z,1.10
2023-02-11T13:02:22.528Z,1.20
2023-02-11T13:06:28.235Z,1.70
2023-02-11T13:10:24.885Z,1.40
2023-02-11T13:14:16.527Z,1.70
2023-02-11T13:18:06.715Z,1.50
2023-02-11T13:22:03.246Z,1.00
2023-02-11T13:25:39.523Z,0.90
2023-02-11T13:29:29.752Z,1.40
2023-02-11T13:33:13.834Z,1.30
2023-02-11T13:37:04.084Z,1.70
2023-02-11T13:41:00.216Z,1.00
2023-02-11T13:45:02.692Z,1.90
2023-02-11T13:48:44.686Z,1.60
2023-02-11T13:52:34.896Z,1.10
2023-02-11T13:56:25.208Z,1.30
2023-02-11T14:00:27.287Z,1.70
2023-02-11T14:04:21.477Z,1.10
2023-02-11T14:08:28.128Z,1.70
2023-02-11T14:12:27.366Z,1.40
2023-02-11T14:16:22.751Z,1.10
2023-02-11T14:20:38.620Z,1.00
2023-02-11T14:24:28.570Z,1.00
2023-02-11T14:28:36.858Z,1.70
2023-02-11T14:32:44.820Z,1.20
2023-02-11T14:36:37.567Z,1.30
2023-02-11T14:40:36.368Z,0.90
2023-02-11T14:44:26.302Z,0.80
2023-02-11T14:47:53.731Z,1.60
2023-02-11T14:51:49.956Z,1.00
2023-02-11T14:55:35.013Z,1.70
2023-02-11T14:59:27.670Z,1.00
2023-02-11T15:03:17.492Z,1.90
2023-02-11T15:07:00.992Z,1.10
2023-02-11T15:10:51.052Z,1.00
2023-02-11T15:14:35.446Z,1.90
2023-02-11T15:18:25.394Z,1.10
2023-02-11T15:22:14.205Z,0.90
2023-02-11T15:26:09.897Z,1.50
2023-02-11T15:30:00.033Z,0.80
2023-02-11T15:33:53.011Z,0.90
2023-02-11T15:37:45.943Z,0.80
2023-02-11T15:41:38.574Z,0.80
2023-02-11T15:45:31.102Z,1.00
2023-02-11T15:49:27.293Z,0.90
2023-02-11T15:53:17.174Z,0.90
2023-02-11T15:57:19.270Z,1.10
2023-02-11T16:01:09.198Z,0.80
2023-02-11T16:05:01.919Z,1.10
2023-02-11T16:08:54.557Z,0.70
2023-02-11T16:12:48.082Z,0.70
2023-02-11T16:16:44.166Z,1.00
2023-02-11T16:20:34.479Z,1.10
2023-02-11T16:24:24.053Z,0.80
2023-02-11T16:28:19.711Z,1.00
2023-02-11T16:32:18.467Z,0.90
2023-02-11T16:36:08.145Z,0.90
2023-02-11T16:39:59.183Z,0.90
2023-02-11T16:43:49.166Z,0.70
2023-02-11T16:47:39.632Z,0.90
2023-02-11T16:51:20.167Z,0.90
2023-02-11T16:55:16.572Z,0.80
2023-02-11T16:59:06.223Z,0.90
2023-02-11T17:02:59.048Z,0.90
2023-02-11T17:06:38.761Z,1.10
2023-02-11T17:10:28.386Z,0.80
2023-02-11T17:14:18.560Z,1.00
2023-02-11T17:18:08.732Z,0.90
2023-02-11T17:21:59.100Z,0.80
2023-02-11T17:25:16.872Z,0.80
2023-02-11T17:29:06.882Z,0.70
2023-02-11T17:32:56.788Z,0.90
2023-02-11T17:36:47.162Z,1.10
2023-02-11T17:41:30.733Z,0.70
2023-02-11T17:44:40.763Z,0.80
2023-02-11T17:48:30.953Z,1.10
2023-02-11T17:52:24.002Z,0.70
2023-02-11T17:55:59.066Z,0.70
2023-02-11T17:59:42.878Z,0.80
2023-02-11T18:03:33.627Z,0.70
2023-02-11T18:07:22.284Z,0.70
2023-02-11T18:10:33.820Z,0.80
2023-02-11T18:14:13.326Z,0.70
2023-02-11T18:18:02.452Z,0.80
2023-02-11T18:21:41.009Z,0.80
2023-02-11T18:25:32.344Z,0.70
2023-02-11T18:29:22.375Z,0.70
2023-02-11T18:33:12.436Z,1.00
2023-02-11T18:37:02.620Z,0.70
2023-02-11T18:40:34.792Z,0.90
2023-02-11T18:44:10.151Z,0.70
2023-02-11T18:47:45.048Z,0.70
2023-02-11T18:50:34.773Z,0.70
2023-02-11T18:54:07.658Z,0.70
2023-02-11T18:57:47.685Z,0.80
2023-02-11T19:01:29.481Z,0.90
2023-02-11T19:04:59.640Z,0.80
2023-02-11T19:08:37.442Z,0.80
2023-02-11T19:12:12.810Z,1.10
2023-02-11T19:16:02.793Z,0.80
2023-02-11T19:19:52.380Z,0.90
2023-02-11T19:23:42.356Z,1.70
2023-02-11T19:26:58.666Z,1.20
2023-02-11T19:30:32.239Z,1.00
2023-02-11T19:33:45.404Z,1.30
2023-02-11T19:37:34.941Z,1.20
2023-02-11T19:40:24.457Z,1.40
2023-02-11T19:43:39.829Z,1.20
2023-02-11T19:47:29.923Z,0.90
2023-02-11T19:51:13.030Z,1.10
2023-02-11T19:55:03.389Z,1.30
2023-02-11T19:58:42.238Z,1.50
2023-02-11T20:01:58.897Z,1.00
2023-02-11T20:05:34.767Z,1.80
2023-02-11T20:08:58.920Z,0.90
2023-02-11T20:12:18.214Z,0.90
2023-02-11T20:16:08.078Z,0.70
2023-02-11T20:19:57.432Z,0.90
2023-02-11T20:23:26.801Z,0.90
2023-02-11T20:26:58.359Z,1.10
2023-02-11T20:30:02.881Z,1.00
2023-02-11T20:33:52.664Z,0.70
2023-02-11T20:37:32.621Z,0.90
2023-02-11T20:41:22.506Z,1.30
2023-02-11T20:45:12.428Z,0.90
2023-02-11T20:48:35.267Z,0.90
2023-02-11T20:52:26.095Z,1.30
2023-02-11T20:55:59.581Z,0.90
2023-02-11T20:59:07.586Z,0.80
2023-02-11T21:02:40.872Z,0.90
2023-02-11T21:06:30.354Z,0.60
2023-02-11T21:10:04.103Z,0.80
2023-02-11T21:13:46.898Z,0.80
2023-02-11T21:17:37.300Z,0.80
2023-02-11T21:21:10.438Z,0.90
2023-02-11T21:24:58.846Z,0.90
2023-02-11T21:28:31.977Z,1.90
2023-02-11T21:32:21.732Z,5.00
2023-02-11T21:36:14.216Z,2.10
2023-02-11T21:39:56.326Z,0.70
2023-02-11T21:43:46.149Z,0.70
2023-02-11T21:47:35.970Z,0.80
2023-02-11T21:51:26.689Z,1.00
2023-02-11T21:55:18.405Z,0.90
2023-02-11T21:58:48.124Z,0.70
2023-02-11T22:02:37.827Z,0.80
2023-02-11T22:06:27.472Z,0.90
2023-02-11T22:10:17.227Z,0.70
2023-02-11T22:14:07.805Z,1.00
2023-02-11T22:17:57.703Z,0.80
2023-02-11T22:21:47.994Z,1.00
2023-02-11T22:25:39.411Z,0.60
2023-02-11T22:29:29.136Z,0.80
2023-02-11T22:33:20.116Z,0.80
2023-02-11T22:37:09.990Z,0.70
2023-02-11T22:40:52.803Z,0.90
2023-02-11T22:44:15.866Z,0.80
2023-02-11T22:48:05.585Z,0.90
2023-02-11T22:51:05.898Z,0.70
2023-02-11T22:54:41.963Z,0.80
2023-02-11T22:58:32.126Z,0.80
2023-02-11T23:02:05.496Z,1.10
2023-02-11T23:09:24.979Z,0.90
2023-02-11T23:13:15.038Z,0.90
2023-02-11T23:16:57.996Z,1.00
2023-02-11T23:20:48.058Z,0.70
2023-02-11T23:24:37.838Z,0.90
2023-02-11T23:28:27.570Z,0.70
2023-02-11T23:32:15.954Z,0.80
2023-02-11T23:36:06.078Z,0.80
2023-02-11T23:39:48.610Z,0.70
2023-02-11T23:43:38.418Z,0.80
2023-02-11T23:47:11.042Z,0.80
2023-02-11T23:51:00.784Z,0.70
2023-02-11T23:54:53.306Z,0.70
2023-02-11T23:58:43.296Z,1.10
